Kansai — JD3272 — position and weather

sailwx.info

Track history (hours):
 
Tides and Currents Weather Stations Pressure Air Temp Water Temp Dewpoint Dewpoint Depression Visibility Wind Speed Wind Dir Waves Ship Positions

Kansai

Last reported at 2016-May-03 01:14 UTC. Time now 2016-May-03 05:01 UTC.
Position N 34°40' E 134°50'.

Length 73 m; draft 4.2 m.

Type: Cargo ship. MMSI: 431003134.

Date/timePositionNaut miles runAvg speedWind from/ knotsBaromVisibWave heightAir tempDewpointWater temp
2016-May-03 01:14N 34°40' E 134°50'7 9.8
2016-May-03 00:32N 34°37' E 134°57'9 9.5
2016-May-02 23:33N 34°31' E 135°05'1312.7
2016-May-02 22:31N 34°18' E 134°60'  
2016-Apr-29 22:33N 34°02' E 134°59'1211.8
2016-Apr-29 21:32N 34°14' E 134°59'1211.7
2016-Apr-29 20:32N 34°26' E 135°01'1110.7
2016-Apr-29 19:32N 34°36' E 135°02'1110.5
2016-Apr-29 18:28N 34°40' E 134°49'1 0.1
2016-Apr-28 18:17N 34°41' E 134°49'7 0.3
2016-Apr-27 13:33N 34°37' E 134°56'1010.0
2016-Apr-27 12:33N 34°29' E 135°04'220 9.1
2016-Apr-26 12:22N 34°58' E 139°29'1411.7
2016-Apr-26 11:09N 35°07' E 139°42'711.5
2016-Apr-26 10:34N 35°13' E 139°46'1111.1
2016-Apr-26 09:34N 35°24' E 139°43'1111.3
2016-Apr-26 08:33N 35°31' E 139°53'10 9.8
2016-Apr-26 07:32N 35°41' E 139°57'0 0.3
2016-Apr-26 06:33N 35°41' E 139°57'0 0.0
2016-Apr-26 05:34N 35°41' E 139°57'0 0.0
2016-Apr-26 04:34N 35°41' E 139°57'0 0.0
2016-Apr-26 03:34N 35°41' E 139°57'0 0.0
2016-Apr-26 02:34N 35°41' E 139°57'0 0.0
2016-Apr-26 01:33N 35°41' E 139°57'0 0.0
2016-Apr-26 00:34N 35°41' E 139°57'0 0.0
2016-Apr-25 23:34N 35°41' E 139°57'0 0.0
2016-Apr-25 22:33N 35°41' E 139°57'0 0.4
2016-Apr-25 21:33N 35°41' E 139°58'0 0.0
2016-Apr-25 20:34N 35°41' E 139°58'0 0.0
2016-Apr-25 19:33N 35°41' E 139°58'0 0.0
2016-Apr-25 18:34N 35°41' E 139°58'0 0.0
2016-Apr-25 17:34N 35°41' E 139°58'0 0.0
2016-Apr-25 16:33N 35°41' E 139°58'0 0.0
2016-Apr-25 15:33N 35°41' E 139°58'0 0.0
2016-Apr-25 14:33N 35°41' E 139°58'0 0.0
2016-Apr-25 13:34N 35°41' E 139°58'0 0.0
2016-Apr-25 12:33N 35°41' E 139°58'0 0.0
2016-Apr-25 11:33N 35°41' E 139°58'0 0.0
2016-Apr-25 10:34N 35°41' E 139°58'0 0.0
2016-Apr-25 09:34N 35°41' E 139°58'0 0.0
2016-Apr-25 08:34N 35°41' E 139°58'0 0.0
2016-Apr-25 07:34N 35°41' E 139°58'0 0.0
2016-Apr-25 06:33N 35°41' E 139°58'0 0.0
2016-Apr-25 05:34N 35°41' E 139°58'0 0.0
2016-Apr-25 04:33N 35°41' E 139°58'0 0.0
2016-Apr-25 03:34N 35°41' E 139°58'0 0.0
2016-Apr-25 02:33N 35°41' E 139°58'0 0.0
2016-Apr-25 01:34N 35°41' E 139°58'0 0.0
2016-Apr-25 00:34N 35°41' E 139°58'0 0.0
2016-Apr-24 23:34N 35°41' E 139°58'0 0.0
2016-Apr-24 22:34N 35°41' E 139°58'0 0.1
2016-Apr-24 21:34N 35°41' E 139°58'8 7.9
2016-Apr-24 20:34N 35°33' E 139°55'1010.2
2016-Apr-24 19:34N 35°25' E 139°47'9 9.3
2016-Apr-24 18:34N 35°16' E 139°47'1110.3
2016-Apr-24 17:32N 35°05' E 139°46'244 8.4
2016-Apr-23 12:33N 34°03' E 134°60'1010.2
2016-Apr-23 11:32N 34°13' E 134°59'9 9.1
2016-Apr-23 10:30N 34°23' E 135°00'9 9.5
2016-Apr-23 09:33N 34°31' E 135°02'7 6.4
2016-Apr-23 08:27N 34°36' E 134°56'  
Track history (hours):
 
Tides and Currents Weather Stations Pressure Air Temp Water Temp Dewpoint Dewpoint Depression Visibility Wind Speed Wind Dir Waves Ship Positions

Kansai

Last reported at 2016-May-03 01:14 UTC. Time now 2016-May-03 05:01 UTC.
Position N 34°40' E 134°50'.

Length 73 m; draft 4.2 m.

Type: Cargo ship. MMSI: 431003134.

Date/timePositionNaut miles runAvg speedWind from/ knotsBaromVisibWave heightAir tempDewpointWater temp
2016-May-03 01:14N 34°40' E 134°50'7 9.8
2016-May-03 00:32N 34°37' E 134°57'9 9.5
2016-May-02 23:33N 34°31' E 135°05'1312.7
2016-May-02 22:31N 34°18' E 134°60'  
2016-Apr-29 22:33N 34°02' E 134°59'1211.8
2016-Apr-29 21:32N 34°14' E 134°59'1211.7
2016-Apr-29 20:32N 34°26' E 135°01'1110.7
2016-Apr-29 19:32N 34°36' E 135°02'1110.5
2016-Apr-29 18:28N 34°40' E 134°49'1 0.1
2016-Apr-28 18:17N 34°41' E 134°49'7 0.3
2016-Apr-27 13:33N 34°37' E 134°56'1010.0
2016-Apr-27 12:33N 34°29' E 135°04'220 9.1
2016-Apr-26 12:22N 34°58' E 139°29'1411.7
2016-Apr-26 11:09N 35°07' E 139°42'711.5
2016-Apr-26 10:34N 35°13' E 139°46'1111.1
2016-Apr-26 09:34N 35°24' E 139°43'1111.3
2016-Apr-26 08:33N 35°31' E 139°53'10 9.8
2016-Apr-26 07:32N 35°41' E 139°57'0 0.3
2016-Apr-26 06:33N 35°41' E 139°57'0 0.0
2016-Apr-26 05:34N 35°41' E 139°57'0 0.0
2016-Apr-26 04:34N 35°41' E 139°57'0 0.0
2016-Apr-26 03:34N 35°41' E 139°57'0 0.0
2016-Apr-26 02:34N 35°41' E 139°57'0 0.0
2016-Apr-26 01:33N 35°41' E 139°57'0 0.0
2016-Apr-26 00:34N 35°41' E 139°57'0 0.0
2016-Apr-25 23:34N 35°41' E 139°57'0 0.0
2016-Apr-25 22:33N 35°41' E 139°57'0 0.4
2016-Apr-25 21:33N 35°41' E 139°58'0 0.0
2016-Apr-25 20:34N 35°41' E 139°58'0 0.0
2016-Apr-25 19:33N 35°41' E 139°58'0 0.0
2016-Apr-25 18:34N 35°41' E 139°58'0 0.0
2016-Apr-25 17:34N 35°41' E 139°58'0 0.0
2016-Apr-25 16:33N 35°41' E 139°58'0 0.0
2016-Apr-25 15:33N 35°41' E 139°58'0 0.0
2016-Apr-25 14:33N 35°41' E 139°58'0 0.0
2016-Apr-25 13:34N 35°41' E 139°58'0 0.0
2016-Apr-25 12:33N 35°41' E 139°58'0 0.0
2016-Apr-25 11:33N 35°41' E 139°58'0 0.0
2016-Apr-25 10:34N 35°41' E 139°58'0 0.0
2016-Apr-25 09:34N 35°41' E 139°58'0 0.0
2016-Apr-25 08:34N 35°41' E 139°58'0 0.0
2016-Apr-25 07:34N 35°41' E 139°58'0 0.0
2016-Apr-25 06:33N 35°41' E 139°58'0 0.0
2016-Apr-25 05:34N 35°41' E 139°58'0 0.0
2016-Apr-25 04:33N 35°41' E 139°58'0 0.0
2016-Apr-25 03:34N 35°41' E 139°58'0 0.0
2016-Apr-25 02:33N 35°41' E 139°58'0 0.0
2016-Apr-25 01:34N 35°41' E 139°58'0 0.0
2016-Apr-25 00:34N 35°41' E 139°58'0 0.0
2016-Apr-24 23:34N 35°41' E 139°58'0 0.0
2016-Apr-24 22:34N 35°41' E 139°58'0 0.1
2016-Apr-24 21:34N 35°41' E 139°58'8 7.9
2016-Apr-24 20:34N 35°33' E 139°55'1010.2
2016-Apr-24 19:34N 35°25' E 139°47'9 9.3
2016-Apr-24 18:34N 35°16' E 139°47'1110.3
2016-Apr-24 17:32N 35°05' E 139°46'244 8.4
2016-Apr-23 12:33N 34°03' E 134°60'1010.2
2016-Apr-23 11:32N 34°13' E 134°59'9 9.1
2016-Apr-23 10:30N 34°23' E 135°00'9 9.5
2016-Apr-23 09:33N 34°31' E 135°02'7 6.4
2016-Apr-23 08:27N 34°36' E 134°56'  

Dump ship's entire track history